sensor_id;sensor_type;location;lat;lon;timestamp;temperature;humidity
18753;DHT22;9505;50.882;5.350;2024-01-07T00:01:56;2.90;99.90
18753;DHT22;9505;50.882;5.350;2024-01-07T00:04:22;2.90;99.90
18753;DHT22;9505;50.882;5.350;2024-01-07T00:06:49;2.90;99.90
18753;DHT22;9505;50.882;5.350;2024-01-07T00:09:15;3.00;99.90
18753;DHT22;9505;50.882;5.350;2024-01-07T00:11:41;3.00;99.90
18753;DHT22;9505;50.882;5.350;2024-01-07T00:14:06;3.10;99.90
18753;DHT22;9505;50.882;5.350;2024-01-07T00:16:32;3.10;99.90
18753;DHT22;9505;50.882;5.350;2024-01-07T00:18:58;3.00;99.90
18753;DHT22;9505;50.882;5.350;2024-01-07T00:21:23;3.00;99.90
18753;DHT22;9505;50.882;5.350;2024-01-07T00:23:49;3.00;99.90
18753;DHT22;9505;50.882;5.350;2024-01-07T00:26:15;2.90;99.90
18753;DHT22;9505;50.882;5.350;2024-01-07T00:28:41;2.90;99.90
18753;DHT22;9505;50.882;5.350;2024-01-07T00:31:06;3.00;99.90
18753;DHT22;9505;50.882;5.350;2024-01-07T00:33:35;3.10;99.90
18753;DHT22;9505;50.882;5.350;2024-01-07T00:36:03;3.00;99.90
18753;DHT22;9505;50.882;5.350;2024-01-07T00:38:28;2.90;99.90
18753;DHT22;9505;50.882;5.350;2024-01-07T00:40:54;3.00;99.90
18753;DHT22;9505;50.882;5.350;2024-01-07T00:43:19;2.90;99.90
18753;DHT22;9505;50.882;5.350;2024-01-07T00:45:45;3.00;99.90
18753;DHT22;9505;50.882;5.350;2024-01-07T00:48:11;3.00;99.90
18753;DHT22;9505;50.882;5.350;2024-01-07T00:50:36;3.10;99.90
18753;DHT22;9505;50.882;5.350;2024-01-07T00:53:02;3.10;99.90
18753;DHT22;9505;50.882;5.350;2024-01-07T00:55:28;3.10;99.90
18753;DHT22;9505;50.882;5.350;2024-01-07T00:57:53;3.20;99.90
18753;DHT22;9505;50.882;5.350;2024-01-07T01:00:19;3.20;99.90
18753;DHT22;9505;50.882;5.350;2024-01-07T01:02:45;3.20;99.90
18753;DHT22;9505;50.882;5.350;2024-01-07T01:05:11;3.10;99.90
18753;DHT22;9505;50.882;5.350;2024-01-07T01:07:37;3.10;99.90
18753;DHT22;9505;50.882;5.350;2024-01-07T01:10:03;3.10;99.90
18753;DHT22;9505;50.882;5.350;2024-01-07T01:12:28;3.10;99.90
18753;DHT22;9505;50.882;5.350;2024-01-07T01:14:55;3.00;99.90
18753;DHT22;9505;50.882;5.350;2024-01-07T01:17:20;3.00;99.90
18753;DHT22;9505;50.882;5.350;2024-01-07T01:19:46;3.00;99.90
18753;DHT22;9505;50.882;5.350;2024-01-07T01:22:12;3.10;99.90
18753;DHT22;9505;50.882;5.350;2024-01-07T01:24:38;3.10;99.90
18753;DHT22;9505;50.882;5.350;2024-01-07T01:27:03;3.10;99.90
18753;DHT22;9505;50.882;5.350;2024-01-07T01:29:29;3.10;99.90
18753;DHT22;9505;50.882;5.350;2024-01-07T01:31:55;3.00;99.90
18753;DHT22;9505;50.882;5.350;2024-01-07T01:34:20;2.90;99.90
18753;DHT22;9505;50.882;5.350;2024-01-07T01:36:46;2.90;99.90
18753;DHT22;9505;50.882;5.350;2024-01-07T01:39:11;2.90;99.90
18753;DHT22;9505;50.882;5.350;2024-01-07T01:41:37;2.90;99.90
18753;DHT22;9505;50.882;5.350;2024-01-07T01:44:03;2.80;99.90
18753;DHT22;9505;50.882;5.350;2024-01-07T01:46:29;2.80;99.90
18753;DHT22;9505;50.882;5.350;2024-01-07T01:48:55;2.60;99.90
18753;DHT22;9505;50.882;5.350;2024-01-07T01:51:21;2.70;99.90
18753;DHT22;9505;50.882;5.350;2024-01-07T01:53:48;2.60;99.90
18753;DHT22;9505;50.882;5.350;2024-01-07T01:56:17;2.70;99.90
18753;DHT22;9505;50.882;5.350;2024-01-07T01:58:44;2.70;99.90
18753;DHT22;9505;50.882;5.350;2024-01-07T02:01:09;2.70;99.90
18753;DHT22;9505;50.882;5.350;2024-01-07T02:03:35;2.80;99.90
18753;DHT22;9505;50.882;5.350;2024-01-07T02:06:01;2.70;99.90
18753;DHT22;9505;50.882;5.350;2024-01-07T02:08:27;2.80;99.90
18753;DHT22;9505;50.882;5.350;2024-01-07T02:10:53;2.80;99.90
18753;DHT22;9505;50.882;5.350;2024-01-07T02:13:18;2.80;99.90
18753;DHT22;9505;50.882;5.350;2024-01-07T02:15:44;2.80;99.90
18753;DHT22;9505;50.882;5.350;2024-01-07T02:18:10;2.90;99.90
18753;DHT22;9505;50.882;5.350;2024-01-07T02:20:35;2.90;99.90
18753;DHT22;9505;50.882;5.350;2024-01-07T02:23:02;2.80;99.90
18753;DHT22;9505;50.882;5.350;2024-01-07T02:25:28;2.80;99.90
18753;DHT22;9505;50.882;5.350;2024-01-07T02:27:53;2.80;99.90
18753;DHT22;9505;50.882;5.350;2024-01-07T02:30:19;2.80;99.90
18753;DHT22;9505;50.882;5.350;2024-01-07T02:32:44;2.80;99.90
18753;DHT22;9505;50.882;5.350;2024-01-07T02:35:10;2.80;99.90
18753;DHT22;9505;50.882;5.350;2024-01-07T02:37:36;2.70;99.90
18753;DHT22;9505;50.882;5.350;2024-01-07T02:40:01;2.70;99.90
18753;DHT22;9505;50.882;5.350;2024-01-07T02:42:29;2.60;99.90
18753;DHT22;9505;50.882;5.350;2024-01-07T02:44:54;2.70;99.90
18753;DHT22;9505;50.882;5.350;2024-01-07T02:47:20;2.60;99.90
18753;DHT22;9505;50.882;5.350;2024-01-07T02:49:46;2.60;99.90
18753;DHT22;9505;50.882;5.350;2024-01-07T02:52:11;2.50;99.90
18753;DHT22;9505;50.882;5.350;2024-01-07T02:54:37;2.60;99.90
18753;DHT22;9505;50.882;5.350;2024-01-07T02:57:03;2.60;99.90
18753;DHT22;9505;50.882;5.350;2024-01-07T02:59:28;2.60;99.90
18753;DHT22;9505;50.882;5.350;2024-01-07T03:01:54;2.60;99.90
18753;DHT22;9505;50.882;5.350;2024-01-07T03:04:19;2.60;99.90
18753;DHT22;9505;50.882;5.350;2024-01-07T03:06:45;2.60;99.90
18753;DHT22;9505;50.882;5.350;2024-01-07T03:09:10;2.60;99.90
18753;DHT22;9505;50.882;5.350;2024-01-07T03:11:40;2.60;99.90
18753;DHT22;9505;50.882;5.350;2024-01-07T03:14:10;2.70;99.90
18753;DHT22;9505;50.882;5.350;2024-01-07T03:16:35;2.70;99.90
18753;DHT22;9505;50.882;5.350;2024-01-07T03:19:01;2.60;99.90
18753;DHT22;9505;50.882;5.350;2024-01-07T03:21:28;2.70;99.90
18753;DHT22;9505;50.882;5.350;2024-01-07T03:23:54;2.80;99.90
18753;DHT22;9505;50.882;5.350;2024-01-07T03:26:20;2.80;99.90
18753;DHT22;9505;50.882;5.350;2024-01-07T03:28:46;2.80;99.90
18753;DHT22;9505;50.882;5.350;2024-01-07T03:31:14;2.80;99.90
18753;DHT22;9505;50.882;5.350;2024-01-07T03:33:40;2.70;99.90
18753;DHT22;9505;50.882;5.350;2024-01-07T03:36:15;2.70;99.90
18753;DHT22;9505;50.882;5.350;2024-01-07T03:38:41;2.70;99.90
18753;DHT22;9505;50.882;5.350;2024-01-07T03:41:07;2.70;99.90
18753;DHT22;9505;50.882;5.350;2024-01-07T03:43:33;2.70;99.90
18753;DHT22;9505;50.882;5.350;2024-01-07T03:45:59;2.70;99.90
18753;DHT22;9505;50.882;5.350;2024-01-07T03:48:26;2.70;99.90
18753;DHT22;9505;50.882;5.350;2024-01-07T03:50:52;2.60;99.90
18753;DHT22;9505;50.882;5.350;2024-01-07T03:53:17;2.60;99.90
18753;DHT22;9505;50.882;5.350;2024-01-07T03:55:43;2.70;99.90
18753;DHT22;9505;50.882;5.350;2024-01-07T03:58:09;2.80;99.90
18753;DHT22;9505;50.882;5.350;2024-01-07T04:00:36;2.60;99.90
18753;DHT22;9505;50.882;5.350;2024-01-07T04:03:01;2.60;99.90
18753;DHT22;9505;50.882;5.350;2024-01-07T04:05:28;2.50;99.90
18753;DHT22;9505;50.882;5.350;2024-01-07T04:07:54;2.60;99.90
18753;DHT22;9505;50.882;5.350;2024-01-07T04:10:20;2.50;99.90
18753;DHT22;9505;50.882;5.350;2024-01-07T04:12:46;2.60;99.90
18753;DHT22;9505;50.882;5.350;2024-01-07T04:15:12;2.60;99.90
18753;DHT22;9505;50.882;5.350;2024-01-07T04:17:38;2.70;99.90
18753;DHT22;9505;50.882;5.350;2024-01-07T04:20:05;2.50;99.90
18753;DHT22;9505;50.882;5.350;2024-01-07T04:22:31;2.60;99.90
18753;DHT22;9505;50.882;5.350;2024-01-07T04:24:56;2.60;99.90
18753;DHT22;9505;50.882;5.350;2024-01-07T04:27:22;2.70;99.90
18753;DHT22;9505;50.882;5.350;2024-01-07T04:29:47;2.60;99.90
18753;DHT22;9505;50.882;5.350;2024-01-07T04:32:13;2.60;99.90
18753;DHT22;9505;50.882;5.350;2024-01-07T04:34:39;2.60;99.90
18753;DHT22;9505;50.882;5.350;2024-01-07T04:37:04;2.60;99.90
18753;DHT22;9505;50.882;5.350;2024-01-07T04:39:30;2.60;99.90
18753;DHT22;9505;50.882;5.350;2024-01-07T04:41:55;2.50;99.90
18753;DHT22;9505;50.882;5.350;2024-01-07T04:44:21;2.50;99.90
18753;DHT22;9505;50.882;5.350;2024-01-07T04:46:47;2.60;99.90
18753;DHT22;9505;50.882;5.350;2024-01-07T04:49:14;2.50;99.90
18753;DHT22;9505;50.882;5.350;2024-01-07T04:51:40;2.50;99.90
18753;DHT22;9505;50.882;5.350;2024-01-07T04:54:05;2.50;99.90
18753;DHT22;9505;50.882;5.350;2024-01-07T04:56:32;2.40;99.90
18753;DHT22;9505;50.882;5.350;2024-01-07T04:58:57;2.50;99.90
18753;DHT22;9505;50.882;5.350;2024-01-07T05:01:23;2.40;99.90
18753;DHT22;9505;50.882;5.350;2024-01-07T05:03:49;2.50;99.90
18753;DHT22;9505;50.882;5.350;2024-01-07T05:06:14;2.40;99.90
18753;DHT22;9505;50.882;5.350;2024-01-07T05:08:41;2.40;99.90
18753;DHT22;9505;50.882;5.350;2024-01-07T05:11:07;2.30;99.90
18753;DHT22;9505;50.882;5.350;2024-01-07T05:13:33;2.30;99.90
18753;DHT22;9505;50.882;5.350;2024-01-07T05:15:59;2.30;99.90
18753;DHT22;9505;50.882;5.350;2024-01-07T05:18:24;2.30;99.90
18753;DHT22;9505;50.882;5.350;2024-01-07T05:20:50;2.30;99.90
18753;DHT22;9505;50.882;5.350;2024-01-07T05:23:16;2.40;99.90
18753;DHT22;9505;50.882;5.350;2024-01-07T05:25:43;2.30;99.90
18753;DHT22;9505;50.882;5.350;2024-01-07T05:28:09;2.30;99.90
18753;DHT22;9505;50.882;5.350;2024-01-07T05:30:35;2.30;99.90
18753;DHT22;9505;50.882;5.350;2024-01-07T05:33:00;2.20;99.90
18753;DHT22;9505;50.882;5.350;2024-01-07T05:35:26;2.20;99.90
18753;DHT22;9505;50.882;5.350;2024-01-07T05:37:52;2.10;99.90
18753;DHT22;9505;50.882;5.350;2024-01-07T05:40:17;2.20;99.90
18753;DHT22;9505;50.882;5.350;2024-01-07T05:42:43;2.10;99.90
18753;DHT22;9505;50.882;5.350;2024-01-07T05:45:09;2.00;99.90
18753;DHT22;9505;50.882;5.350;2024-01-07T05:47:34;2.00;99.90
18753;DHT22;9505;50.882;5.350;2024-01-07T05:50:00;2.00;99.90
18753;DHT22;9505;50.882;5.350;2024-01-07T05:52:25;2.00;99.90
18753;DHT22;9505;50.882;5.350;2024-01-07T05:54:51;2.10;99.90
18753;DHT22;9505;50.882;5.350;2024-01-07T05:57:17;2.20;99.90
18753;DHT22;9505;50.882;5.350;2024-01-07T05:59:44;2.20;99.90
18753;DHT22;9505;50.882;5.350;2024-01-07T06:02:09;2.10;99.90
18753;DHT22;9505;50.882;5.350;2024-01-07T06:04:37;2.20;99.90
18753;DHT22;9505;50.882;5.350;2024-01-07T06:07:03;2.20;99.90
18753;DHT22;9505;50.882;5.350;2024-01-07T06:09:28;2.10;99.90
18753;DHT22;9505;50.882;5.350;2024-01-07T06:11:54;2.10;99.90
18753;DHT22;9505;50.882;5.350;2024-01-07T06:14:22;2.00;99.90
18753;DHT22;9505;50.882;5.350;2024-01-07T06:16:48;2.00;99.90
18753;DHT22;9505;50.882;5.350;2024-01-07T06:19:13;2.00;99.90
18753;DHT22;9505;50.882;5.350;2024-01-07T06:21:40;2.00;99.90
18753;DHT22;9505;50.882;5.350;2024-01-07T06:24:08;2.00;99.90
18753;DHT22;9505;50.882;5.350;2024-01-07T06:26:33;2.00;99.90
18753;DHT22;9505;50.882;5.350;2024-01-07T06:28:59;2.00;99.90
18753;DHT22;9505;50.882;5.350;2024-01-07T06:31:25;2.00;99.90
18753;DHT22;9505;50.882;5.350;2024-01-07T06:33:51;1.90;99.90
18753;DHT22;9505;50.882;5.350;2024-01-07T06:36:17;2.00;99.90
18753;DHT22;9505;50.882;5.350;2024-01-07T06:38:43;2.00;99.90
18753;DHT22;9505;50.882;5.350;2024-01-07T06:41:11;2.00;99.90
18753;DHT22;9505;50.882;5.350;2024-01-07T06:43:37;2.00;99.90
18753;DHT22;9505;50.882;5.350;2024-01-07T06:46:02;2.00;99.90
18753;DHT22;9505;50.882;5.350;2024-01-07T06:48:28;2.00;99.90
18753;DHT22;9505;50.882;5.350;2024-01-07T06:50:54;2.00;99.90
18753;DHT22;9505;50.882;5.350;2024-01-07T06:53:19;2.00;99.90
18753;DHT22;9505;50.882;5.350;2024-01-07T06:55:45;2.00;99.90
18753;DHT22;9505;50.882;5.350;2024-01-07T06:58:11;1.90;99.90
18753;DHT22;9505;50.882;5.350;2024-01-07T07:00:36;1.90;99.90
18753;DHT22;9505;50.882;5.350;2024-01-07T07:03:02;1.80;99.90
18753;DHT22;9505;50.882;5.350;2024-01-07T07:05:27;1.80;99.90
18753;DHT22;9505;50.882;5.350;2024-01-07T07:07:53;1.80;99.90
18753;DHT22;9505;50.882;5.350;2024-01-07T07:10:19;1.90;99.90
18753;DHT22;9505;50.882;5.350;2024-01-07T07:12:44;1.80;99.90
18753;DHT22;9505;50.882;5.350;2024-01-07T07:15:10;1.90;99.90
18753;DHT22;9505;50.882;5.350;2024-01-07T07:17:38;1.90;99.90
18753;DHT22;9505;50.882;5.350;2024-01-07T07:20:05;2.00;99.90
18753;DHT22;9505;50.882;5.350;2024-01-07T07:22:31;2.00;99.90
18753;DHT22;9505;50.882;5.350;2024-01-07T07:24:57;1.90;99.90
18753;DHT22;9505;50.882;5.350;2024-01-07T07:27:22;2.00;99.90
18753;DHT22;9505;50.882;5.350;2024-01-07T07:29:49;2.00;99.90
18753;DHT22;9505;50.882;5.350;2024-01-07T07:32:16;2.00;99.90
18753;DHT22;9505;50.882;5.350;2024-01-07T07:34:42;2.00;99.90
18753;DHT22;9505;50.882;5.350;2024-01-07T07:37:08;2.10;99.90
18753;DHT22;9505;50.882;5.350;2024-01-07T07:39:34;2.00;99.90
18753;DHT22;9505;50.882;5.350;2024-01-07T07:42:00;2.00;99.90
18753;DHT22;9505;50.882;5.350;2024-01-07T07:44:25;2.00;99.90
18753;DHT22;9505;50.882;5.350;2024-01-07T07:46:51;2.00;99.90
18753;DHT22;9505;50.882;5.350;2024-01-07T07:49:16;1.90;99.90
18753;DHT22;9505;50.882;5.350;2024-01-07T07:51:43;1.90;99.90
18753;DHT22;9505;50.882;5.350;2024-01-07T07:54:09;1.90;99.90
18753;DHT22;9505;50.882;5.350;2024-01-07T07:56:34;1.90;99.90
18753;DHT22;9505;50.882;5.350;2024-01-07T07:59:02;1.80;99.90
18753;DHT22;9505;50.882;5.350;2024-01-07T08:01:28;1.80;99.90
18753;DHT22;9505;50.882;5.350;2024-01-07T08:03:54;1.80;99.90
18753;DHT22;9505;50.882;5.350;2024-01-07T08:06:20;1.80;99.90
18753;DHT22;9505;50.882;5.350;2024-01-07T08:08:46;1.80;99.90
18753;DHT22;9505;50.882;5.350;2024-01-07T08:11:12;1.70;99.90
18753;DHT22;9505;50.882;5.350;2024-01-07T08:13:38;1.70;99.90
18753;DHT22;9505;50.882;5.350;2024-01-07T08:16:04;1.70;99.90
18753;DHT22;9505;50.882;5.350;2024-01-07T08:18:31;1.70;99.90
18753;DHT22;9505;50.882;5.350;2024-01-07T08:20:57;1.60;99.90
18753;DHT22;9505;50.882;5.350;2024-01-07T08:23:24;1.60;99.90
18753;DHT22;9505;50.882;5.350;2024-01-07T08:25:49;1.60;99.90
18753;DHT22;9505;50.882;5.350;2024-01-07T08:28:17;1.70;99.90
18753;DHT22;9505;50.882;5.350;2024-01-07T08:30:43;1.70;99.90
18753;DHT22;9505;50.882;5.350;2024-01-07T08:33:10;1.60;99.90
18753;DHT22;9505;50.882;5.350;2024-01-07T08:35:36;1.60;99.90
18753;DHT22;9505;50.882;5.350;2024-01-07T08:38:02;1.60;99.90
18753;DHT22;9505;50.882;5.350;2024-01-07T08:40:29;1.70;99.90
18753;DHT22;9505;50.882;5.350;2024-01-07T08:42:55;1.70;99.90
18753;DHT22;9505;50.882;5.350;2024-01-07T08:45:20;1.60;99.90
18753;DHT22;9505;50.882;5.350;2024-01-07T08:47:46;1.70;99.90
18753;DHT22;9505;50.882;5.350;2024-01-07T08:50:12;1.80;99.90
18753;DHT22;9505;50.882;5.350;2024-01-07T08:52:38;1.70;99.90
18753;DHT22;9505;50.882;5.350;2024-01-07T08:55:04;1.70;99.90
18753;DHT22;9505;50.882;5.350;2024-01-07T08:57:32;1.70;99.90
18753;DHT22;9505;50.882;5.350;2024-01-07T08:59:57;1.70;99.90
18753;DHT22;9505;50.882;5.350;2024-01-07T09:02:23;1.70;99.90
18753;DHT22;9505;50.882;5.350;2024-01-07T09:04:49;1.70;99.90
18753;DHT22;9505;50.882;5.350;2024-01-07T09:07:15;1.70;99.90
18753;DHT22;9505;50.882;5.350;2024-01-07T09:09:42;1.70;99.90
18753;DHT22;9505;50.882;5.350;2024-01-07T09:12:08;1.60;99.90
18753;DHT22;9505;50.882;5.350;2024-01-07T09:14:33;1.70;99.90
18753;DHT22;9505;50.882;5.350;2024-01-07T09:16:59;1.70;99.90
18753;DHT22;9505;50.882;5.350;2024-01-07T09:19:24;1.80;99.90
18753;DHT22;9505;50.882;5.350;2024-01-07T09:21:50;1.70;99.90
18753;DHT22;9505;50.882;5.350;2024-01-07T09:24:16;1.80;99.90
18753;DHT22;9505;50.882;5.350;2024-01-07T09:26:41;1.90;99.90
18753;DHT22;9505;50.882;5.350;2024-01-07T09:29:07;1.90;99.90
18753;DHT22;9505;50.882;5.350;2024-01-07T09:31:33;1.90;99.90
18753;DHT22;9505;50.882;5.350;2024-01-07T09:33:58;1.80;99.90
18753;DHT22;9505;50.882;5.350;2024-01-07T09:36:24;1.80;99.90
18753;DHT22;9505;50.882;5.350;2024-01-07T09:38:49;1.70;99.90
18753;DHT22;9505;50.882;5.350;2024-01-07T09:41:15;1.70;99.90
18753;DHT22;9505;50.882;5.350;2024-01-07T09:43:41;1.80;99.90
18753;DHT22;9505;50.882;5.350;2024-01-07T09:46:07;1.80;99.90
18753;DHT22;9505;50.882;5.350;2024-01-07T09:48:32;1.70;99.90
18753;DHT22;9505;50.882;5.350;2024-01-07T09:51:00;1.70;99.90
18753;DHT22;9505;50.882;5.350;2024-01-07T09:53:30;1.80;99.90
18753;DHT22;9505;50.882;5.350;2024-01-07T09:56:29;1.70;99.90
18753;DHT22;9505;50.882;5.350;2024-01-07T09:58:56;1.80;99.90
18753;DHT22;9505;50.882;5.350;2024-01-07T10:01:22;1.70;99.90
18753;DHT22;9505;50.882;5.350;2024-01-07T10:03:48;1.80;99.90
18753;DHT22;9505;50.882;5.350;2024-01-07T10:06:18;1.80;99.90
18753;DHT22;9505;50.882;5.350;2024-01-07T10:08:44;1.80;99.90
18753;DHT22;9505;50.882;5.350;2024-01-07T10:11:10;1.90;99.90
18753;DHT22;9505;50.882;5.350;2024-01-07T10:13:38;2.00;99.90
18753;DHT22;9505;50.882;5.350;2024-01-07T10:16:04;1.90;99.90
18753;DHT22;9505;50.882;5.350;2024-01-07T10:18:30;2.00;99.90
18753;DHT22;9505;50.882;5.350;2024-01-07T10:21:02;2.00;99.90
18753;DHT22;9505;50.882;5.350;2024-01-07T10:23:29;1.90;99.90
18753;DHT22;9505;50.882;5.350;2024-01-07T10:25:54;2.00;99.90
18753;DHT22;9505;50.882;5.350;2024-01-07T10:28:22;2.00;99.90
18753;DHT22;9505;50.882;5.350;2024-01-07T10:30:51;2.10;99.90
18753;DHT22;9505;50.882;5.350;2024-01-07T10:33:18;2.10;99.90
18753;DHT22;9505;50.882;5.350;2024-01-07T10:35:53;2.10;99.90
18753;DHT22;9505;50.882;5.350;2024-01-07T10:38:21;2.10;99.90
18753;DHT22;9505;50.882;5.350;2024-01-07T10:40:48;2.00;99.90
18753;DHT22;9505;50.882;5.350;2024-01-07T10:43:15;2.00;99.90
18753;DHT22;9505;50.882;5.350;2024-01-07T10:45:44;1.90;99.90
18753;DHT22;9505;50.882;5.350;2024-01-07T10:48:17;1.80;99.90
18753;DHT22;9505;50.882;5.350;2024-01-07T10:50:47;1.80;99.90
18753;DHT22;9505;50.882;5.350;2024-01-07T10:53:25;1.70;99.90
18753;DHT22;9505;50.882;5.350;2024-01-07T10:56:03;1.70;99.90
18753;DHT22;9505;50.882;5.350;2024-01-07T10:58:33;1.70;99.90
18753;DHT22;9505;50.882;5.350;2024-01-07T11:01:01;1.80;99.90
18753;DHT22;9505;50.882;5.350;2024-01-07T11:06:33;1.80;99.90
18753;DHT22;9505;50.882;5.350;2024-01-07T11:09:20;1.80;99.90
18753;DHT22;9505;50.882;5.350;2024-01-07T11:11:46;1.80;99.90
18753;DHT22;9505;50.882;5.350;2024-01-07T11:14:35;1.90;99.90
18753;DHT22;9505;50.882;5.350;2024-01-07T11:17:05;1.80;99.90
18753;DHT22;9505;50.882;5.350;2024-01-07T11:19:32;1.70;99.90
18753;DHT22;9505;50.882;5.350;2024-01-07T11:22:23;1.60;99.90
18753;DHT22;9505;50.882;5.350;2024-01-07T11:24:51;1.60;99.90
18753;DHT22;9505;50.882;5.350;2024-01-07T11:27:17;1.60;99.90
18753;DHT22;9505;50.882;5.350;2024-01-07T11:29:42;1.70;99.90
18753;DHT22;9505;50.882;5.350;2024-01-07T11:32:12;1.70;99.90
18753;DHT22;9505;50.882;5.350;2024-01-07T11:34:39;1.70;99.90
18753;DHT22;9505;50.882;5.350;2024-01-07T11:37:13;1.70;99.90
18753;DHT22;9505;50.882;5.350;2024-01-07T11:39:42;1.70;99.90
18753;DHT22;9505;50.882;5.350;2024-01-07T11:42:08;1.70;99.90
18753;DHT22;9505;50.882;5.350;2024-01-07T11:44:35;1.70;99.90
18753;DHT22;9505;50.882;5.350;2024-01-07T11:47:06;1.50;99.90
18753;DHT22;9505;50.882;5.350;2024-01-07T11:49:32;1.30;99.90
18753;DHT22;9505;50.882;5.350;2024-01-07T11:51:59;1.40;99.90
18753;DHT22;9505;50.882;5.350;2024-01-07T11:54:24;1.50;99.90
18753;DHT22;9505;50.882;5.350;2024-01-07T11:56:50;1.50;99.90
18753;DHT22;9505;50.882;5.350;2024-01-07T11:59:16;1.40;99.90
18753;DHT22;9505;50.882;5.350;2024-01-07T12:01:42;1.40;99.90
18753;DHT22;9505;50.882;5.350;2024-01-07T12:04:07;1.50;99.90
18753;DHT22;9505;50.882;5.350;2024-01-07T12:06:34;1.50;99.90
18753;DHT22;9505;50.882;5.350;2024-01-07T12:09:00;1.50;99.90
18753;DHT22;9505;50.882;5.350;2024-01-07T12:11:26;1.50;99.90
18753;DHT22;9505;50.882;5.350;2024-01-07T12:13:52;1.60;99.90
18753;DHT22;9505;50.882;5.350;2024-01-07T12:16:18;1.70;99.90
18753;DHT22;9505;50.882;5.350;2024-01-07T12:18:43;1.70;99.90
18753;DHT22;9505;50.882;5.350;2024-01-07T12:21:09;1.60;99.90
18753;DHT22;9505;50.882;5.350;2024-01-07T12:23:36;1.50;99.90
18753;DHT22;9505;50.882;5.350;2024-01-07T12:26:11;1.50;99.90
18753;DHT22;9505;50.882;5.350;2024-01-07T12:28:38;1.50;99.90
18753;DHT22;9505;50.882;5.350;2024-01-07T12:31:04;1.50;99.90
18753;DHT22;9505;50.882;5.350;2024-01-07T12:33:30;1.60;99.90
18753;DHT22;9505;50.882;5.350;2024-01-07T12:35:57;1.70;99.90
18753;DHT22;9505;50.882;5.350;2024-01-07T12:38:27;1.70;99.90
18753;DHT22;9505;50.882;5.350;2024-01-07T12:40:53;1.60;99.90
18753;DHT22;9505;50.882;5.350;2024-01-07T12:43:19;1.60;99.90
18753;DHT22;9505;50.882;5.350;2024-01-07T12:45:46;1.70;99.90
18753;DHT22;9505;50.882;5.350;2024-01-07T12:48:12;1.60;99.90
18753;DHT22;9505;50.882;5.350;2024-01-07T12:50:38;1.50;99.90
18753;DHT22;9505;50.882;5.350;2024-01-07T12:53:04;1.40;99.90
18753;DHT22;9505;50.882;5.350;2024-01-07T12:55:30;1.40;99.90
18753;DHT22;9505;50.882;5.350;2024-01-07T12:57:56;1.50;99.90
18753;DHT22;9505;50.882;5.350;2024-01-07T13:00:24;1.60;99.90
18753;DHT22;9505;50.882;5.350;2024-01-07T13:02:50;1.70;99.90
18753;DHT22;9505;50.882;5.350;2024-01-07T13:05:16;1.80;99.90
18753;DHT22;9505;50.882;5.350;2024-01-07T13:07:42;1.80;99.90
18753;DHT22;9505;50.882;5.350;2024-01-07T13:10:08;1.80;99.90
18753;DHT22;9505;50.882;5.350;2024-01-07T13:12:38;1.70;99.90
18753;DHT22;9505;50.882;5.350;2024-01-07T13:15:04;1.60;99.90
18753;DHT22;9505;50.882;5.350;2024-01-07T13:17:29;1.70;99.90
18753;DHT22;9505;50.882;5.350;2024-01-07T13:19:56;1.70;99.90
18753;DHT22;9505;50.882;5.350;2024-01-07T13:22:22;1.70;99.90
18753;DHT22;9505;50.882;5.350;2024-01-07T13:24:47;1.60;99.90
18753;DHT22;9505;50.882;5.350;2024-01-07T13:27:13;1.50;99.90
18753;DHT22;9505;50.882;5.350;2024-01-07T13:29:39;1.50;99.90
18753;DHT22;9505;50.882;5.350;2024-01-07T13:32:05;1.50;99.90
18753;DHT22;9505;50.882;5.350;2024-01-07T13:34:30;1.60;99.90
18753;DHT22;9505;50.882;5.350;2024-01-07T13:36:56;1.60;99.90
18753;DHT22;9505;50.882;5.350;2024-01-07T13:39:22;1.50;99.90
18753;DHT22;9505;50.882;5.350;2024-01-07T13:41:47;1.60;99.90
18753;DHT22;9505;50.882;5.350;2024-01-07T13:44:13;1.50;99.90
18753;DHT22;9505;50.882;5.350;2024-01-07T13:46:46;1.50;99.90
18753;DHT22;9505;50.882;5.350;2024-01-07T13:49:12;1.50;99.90
18753;DHT22;9505;50.882;5.350;2024-01-07T13:51:39;1.40;99.90
18753;DHT22;9505;50.882;5.350;2024-01-07T13:54:05;1.50;99.90
18753;DHT22;9505;50.882;5.350;2024-01-07T13:56:31;1.50;99.90
18753;DHT22;9505;50.882;5.350;2024-01-07T13:58:57;1.50;99.90
18753;DHT22;9505;50.882;5.350;2024-01-07T14:01:22;1.50;99.90
18753;DHT22;9505;50.882;5.350;2024-01-07T14:03:48;1.50;99.90
18753;DHT22;9505;50.882;5.350;2024-01-07T14:06:14;1.60;99.90
18753;DHT22;9505;50.882;5.350;2024-01-07T14:08:39;1.60;99.90
18753;DHT22;9505;50.882;5.350;2024-01-07T14:11:05;1.50;99.90
18753;DHT22;9505;50.882;5.350;2024-01-07T14:13:32;1.50;99.90
18753;DHT22;9505;50.882;5.350;2024-01-07T14:15:58;1.50;99.90
18753;DHT22;9505;50.882;5.350;2024-01-07T14:18:24;1.50;99.90
18753;DHT22;9505;50.882;5.350;2024-01-07T14:20:49;1.40;99.90
18753;DHT22;9505;50.882;5.350;2024-01-07T14:23:15;1.40;99.90
18753;DHT22;9505;50.882;5.350;2024-01-07T14:25:40;1.40;99.90
18753;DHT22;9505;50.882;5.350;2024-01-07T14:28:07;1.40;99.90
18753;DHT22;9505;50.882;5.350;2024-01-07T14:30:33;1.50;99.90
18753;DHT22;9505;50.882;5.350;2024-01-07T14:32:58;1.40;99.90
18753;DHT22;9505;50.882;5.350;2024-01-07T14:35:24;1.20;99.90
18753;DHT22;9505;50.882;5.350;2024-01-07T14:37:52;1.30;99.90
18753;DHT22;9505;50.882;5.350;2024-01-07T14:40:20;1.30;99.90
18753;DHT22;9505;50.882;5.350;2024-01-07T14:42:46;1.20;99.90
18753;DHT22;9505;50.882;5.350;2024-01-07T14:45:11;1.10;99.90
18753;DHT22;9505;50.882;5.350;2024-01-07T14:47:38;1.10;99.90
18753;DHT22;9505;50.882;5.350;2024-01-07T14:50:04;1.10;99.90
18753;DHT22;9505;50.882;5.350;2024-01-07T14:52:29;1.00;99.90
18753;DHT22;9505;50.882;5.350;2024-01-07T14:54:55;1.00;99.90
18753;DHT22;9505;50.882;5.350;2024-01-07T14:57:21;1.00;99.90
18753;DHT22;9505;50.882;5.350;2024-01-07T14:59:47;1.00;99.90
18753;DHT22;9505;50.882;5.350;2024-01-07T15:02:13;1.00;99.90
18753;DHT22;9505;50.882;5.350;2024-01-07T15:04:38;1.00;99.90
18753;DHT22;9505;50.882;5.350;2024-01-07T15:07:04;1.00;99.90
18753;DHT22;9505;50.882;5.350;2024-01-07T15:09:30;1.00;99.90
18753;DHT22;9505;50.882;5.350;2024-01-07T15:11:56;0.90;99.90
18753;DHT22;9505;50.882;5.350;2024-01-07T15:14:21;0.90;99.90
18753;DHT22;9505;50.882;5.350;2024-01-07T15:16:48;1.00;99.90
18753;DHT22;9505;50.882;5.350;2024-01-07T15:19:19;0.90;99.90
18753;DHT22;9505;50.882;5.350;2024-01-07T15:21:46;0.90;99.90
18753;DHT22;9505;50.882;5.350;2024-01-07T15:24:11;0.90;99.90
18753;DHT22;9505;50.882;5.350;2024-01-07T15:26:37;0.90;99.90
18753;DHT22;9505;50.882;5.350;2024-01-07T15:29:04;0.90;99.90
18753;DHT22;9505;50.882;5.350;2024-01-07T15:31:30;0.80;99.90
18753;DHT22;9505;50.882;5.350;2024-01-07T15:33:56;0.70;99.90
18753;DHT22;9505;50.882;5.350;2024-01-07T15:36:21;0.70;99.90
18753;DHT22;9505;50.882;5.350;2024-01-07T15:38:47;0.70;99.90
18753;DHT22;9505;50.882;5.350;2024-01-07T15:41:13;0.50;99.90
18753;DHT22;9505;50.882;5.350;2024-01-07T15:43:39;0.50;99.90
18753;DHT22;9505;50.882;5.350;2024-01-07T15:46:04;0.60;99.90
18753;DHT22;9505;50.882;5.350;2024-01-07T15:48:31;0.60;99.90
18753;DHT22;9505;50.882;5.350;2024-01-07T15:50:59;0.70;99.90
18753;DHT22;9505;50.882;5.350;2024-01-07T15:53:25;0.70;99.90
18753;DHT22;9505;50.882;5.350;2024-01-07T15:56:00;0.70;99.90
18753;DHT22;9505;50.882;5.350;2024-01-07T15:58:26;0.60;99.90
18753;DHT22;9505;50.882;5.350;2024-01-07T16:00:59;0.60;99.90